Capitol Logistics 870


GOBD
Blaise Diagne International Airport
Dakar, SN
EBLG
Liège Airport
Liege, BE

Route Details

Aircraft Information
Primary: Boeing 767-300BDSF
Backup: Not Available
Route Data
Distance: 2516nm
Sched. Duration: 4h 45m
Avg. Duration: 5h 78m (+134m)
Times Flown: 7
Recm'd Route: Not Available
Planned Altitude: 35,000ft
Origin Wx: GOBD 290130Z 33010KT 8000 NSC 25/18 Q1012 NOSIG
Dest. Wx: EBLG 290120Z 23016KT 9999 FEW020 10/07 Q1011 NOSIG
Notes:

Financial History
Total Freight: 702,517lbs
Average Load: 100,360lbs/flt
Fuel Used: 444,205lbs
Avg. Fuel Used: 63,458lbs/flt
Fuel Expense: $328,712
Avg. Fuel Expense: $46,959
Avg. Fuel Cost: $0.74/lbs
Total Gross Income: $6,723,349
Pilot Pay: $1,683
Total Expenses: $726,486
Total Revenue: $5,657,438
Average Revenue: $960,478.38